Time;durP1;ratioP1;P1;durP2;ratioP2;P2;SDS_P1;SDS_P2;PMS_P1;PMS_P2;Temp;Humidity;BMP_temperature;BMP_pressure;BME280_temperature;BME280_humidity;BME280_pressure;Samples;Min_cycle;Max_cycle;Signal;HPM_P1;HPM_P2
2022/11/07 00:00:59;;;;;;;18.77;3.40;;;;;;;10.18;100.00;100517.50;5027282;28;20038;-38
2022/11/07 00:03:25;;;;;;;16.65;3.45;;;;;;;10.16;100.00;100515.00;5030964;28;20529;-38
2022/11/07 00:05:50;;;;;;;21.30;4.15;;;;;;;10.18;100.00;100520.19;5030937;28;20033;-38
2022/11/07 00:08:16;;;;;;;14.32;3.35;;;;;;;10.18;100.00;100518.34;5029504;28;20415;-39
2022/11/07 00:10:41;;;;;;;21.92;4.05;;;;;;;10.20;100.00;100529.75;5030811;28;20033;-39
2022/11/07 00:13:06;;;;;;;22.05;3.83;;;;;;;10.23;100.00;100521.31;5030120;28;20041;-39
2022/11/07 00:15:32;;;;;;;20.20;3.65;;;;;;;10.23;100.00;100521.31;5030285;28;20084;-40
2022/11/07 00:17:57;;;;;;;19.80;4.15;;;;;;;10.24;100.00;100512.22;5030134;28;20116;-39
2022/11/07 00:20:22;;;;;;;13.07;3.78;;;;;;;10.21;100.00;100496.44;5030245;28;20041;-39
2022/11/07 00:22:48;;;;;;;21.23;5.53;;;;;;;10.24;100.00;100509.53;5029808;28;20041;-38
2022/11/07 00:25:14;;;;;;;11.68;3.40;;;;;;;10.26;100.00;100506.66;5028773;28;20026;-37
2022/11/07 00:27:40;;;;;;;20.15;4.28;;;;;;;10.21;100.00;100503.69;5028376;28;20028;-39
2022/11/07 00:30:05;;;;;;;18.98;3.78;;;;;;;10.19;100.00;100509.28;5028893;28;20348;-38
2022/11/07 00:32:31;;;;;;;27.33;3.50;;;;;;;10.18;100.00;100512.97;5028660;28;20083;-40
2022/11/07 00:34:56;;;;;;;21.65;4.78;;;;;;;10.17;100.00;100523.91;5029229;28;20036;-40
2022/11/07 00:37:21;;;;;;;12.55;3.30;;;;;;;10.15;100.00;100516.03;5028520;28;20022;-37
2022/11/07 00:39:47;;;;;;;23.05;3.60;;;;;;;10.13;100.00;100520.75;5030667;28;20030;-39
2022/11/07 00:42:12;;;;;;;14.98;3.63;;;;;;;10.14;100.00;100532.34;5030476;28;20031;-38
2022/11/07 00:44:37;;;;;;;18.08;3.35;;;;;;;10.09;100.00;100523.00;5029491;28;20108;-37
2022/11/07 00:47:03;;;;;;;30.38;5.20;;;;;;;10.13;100.00;100536.88;5028607;28;20124;-37
2022/11/07 00:49:28;;;;;;;16.48;2.92;;;;;;;10.13;100.00;100533.38;5030469;28;20049;-37
2022/11/07 00:51:53;;;;;;;14.68;2.72;;;;;;;10.15;100.00;100518.72;5029832;28;20044;-37
2022/11/07 00:54:19;;;;;;;20.48;3.53;;;;;;;10.16;100.00;100524.94;5028975;28;20025;-38
2022/11/07 00:56:46;;;;;;;25.00;3.00;;;;;;;10.14;100.00;100535.88;5029679;28;20040;-37
2022/11/07 00:59:11;;;;;;;22.25;3.70;;;;;;;10.13;100.00;100536.88;5034136;28;20056;-40
2022/11/07 01:01:37;;;;;;;19.63;3.30;;;;;;;10.14;100.00;100541.25;5033405;28;20463;-37
2022/11/07 01:06:47;;;;;;;23.88;3.70;;;;;;;10.19;100.00;100557.69;5032980;28;20087;-39
2022/11/07 01:09:18;;;;;;;22.33;2.67;;;;;;;10.27;100.00;100538.78;5033356;28;20025;-37
2022/11/07 01:11:44;;;;;;;32.92;4.05;;;;;;;10.31;100.00;100540.06;5033634;28;20033;-36
2022/11/07 01:14:10;;;;;;;20.05;2.95;;;;;;;10.36;100.00;100552.94;5034022;28;20027;-36
2022/11/07 01:16:37;;;;;;;28.17;3.53;;;;;;;10.33;100.00;100559.53;5032351;28;20045;-37
2022/11/07 01:19:03;;;;;;;27.95;3.70;;;;;;;10.27;100.00;100565.69;5021298;28;20088;-41
2022/11/07 01:21:29;;;;;;;22.30;3.83;;;;;;;10.22;100.00;100565.38;5017651;28;20418;-42
2022/11/07 01:23:54;;;;;;;29.23;4.28;;;;;;;10.16;100.00;100562.56;5034145;28;20036;-44
2022/11/07 01:26:20;;;;;;;21.48;3.65;;;;;;;10.10;100.00;100566.84;5034672;28;20030;-42
2022/11/07 01:28:45;;;;;;;22.73;3.40;;;;;;;10.07;100.00;100576.13;5031843;28;20390;-41
2022/11/07 01:31:13;;;;;;;20.67;3.83;;;;;;;10.07;100.00;100568.03;5032591;28;20414;-39
2022/11/07 01:33:39;;;;;;;;;;;;;;;10.04;100.00;100573.81;5032211;28;20533;-37
2022/11/07 01:36:11;;;;;;;28.67;3.90;;;;;;;10.03;100.00;100595.47;5030138;28;19937;-40
2022/11/07 01:38:38;;;;;;;19.13;3.50;;;;;;;10.06;100.00;100573.63;5032935;28;20026;-36
2022/11/07 01:41:20;;;;;;;18.17;3.75;;;;;;;10.04;100.00;100594.47;5032743;28;20041;-38
2022/11/07 01:43:46;;;;;;;18.90;3.28;;;;;;;10.02;100.00;100585.75;5013077;28;20089;-38
2022/11/07 01:46:13;;;;;;;19.48;3.60;;;;;;;9.99;100.00;100594.19;5021976;28;20120;-37
2022/11/07 01:48:39;;;;;;;27.52;3.40;;;;;;;9.98;100.00;100581.75;5035563;28;20507;-37
2022/11/07 01:51:05;;;;;;;16.45;4.03;;;;;;;9.98;100.00;100590.69;5033236;28;20026;-38
2022/11/07 01:53:31;;;;;;;20.92;3.78;;;;;;;9.96;100.00;100586.50;5033986;28;20036;-37
2022/11/07 01:55:56;;;;;;;22.98;4.05;;;;;;;9.93;100.00;100584.19;5032570;28;20026;-37
2022/11/07 01:58:21;;;;;;;31.83;3.95;;;;;;;9.95;100.00;100592.88;5032505;28;20434;-37
2022/11/07 02:00:47;;;;;;;15.25;4.05;;;;;;;9.94;100.00;100596.59;5032310;28;20041;-38
2022/11/07 02:03:16;;;;;;;18.63;3.70;;;;;;;9.96;100.00;100586.50;5032178;28;20057;-40
2022/11/07 02:06:00;;;;;;;21.20;4.15;;;;;;;9.96;100.00;100573.06;5031266;28;20057;-36
2022/11/07 02:08:27;;;;;;;23.20;4.38;;;;;;;9.99;100.00;100595.03;5031037;28;20094;-36
2022/11/07 02:10:52;;;;;;;22.20;4.05;;;;;;;9.98;100.00;100582.63;5031407;28;20025;-36
2022/11/07 02:13:25;;;;;;;20.42;4.35;;;;;;;10.00;100.00;100591.31;5032205;28;20040;-36
2022/11/07 02:15:51;;;;;;;22.17;4.18;;;;;;;10.02;100.00;100599.19;5031871;28;20995;-38
2022/11/07 02:18:16;;;;;;;27.17;4.22;;;;;;;10.03;100.00;100590.09;5032271;28;20420;-37
2022/11/07 02:20:43;;;;;;;19.83;3.70;;;;;;;10.04;100.00;100591.78;5031555;28;20533;-39
2022/11/07 02:23:13;;;;;;;15.77;3.38;;;;;;;10.08;100.00;100593.06;5032281;28;20037;-38
2022/11/07 02:25:39;;;;;;;19.08;4.47;;;;;;;10.09;100.00;100597.47;5031690;28;20081;-39
2022/11/07 02:28:07;;;;;;;27.05;4.70;;;;;;;10.11;100.00;100593.56;5031689;28;20026;-37
2022/11/07 02:30:33;;;;;;;23.80;4.05;;;;;;;10.11;100.00;100592.72;5033331;28;20022;-40
2022/11/07 02:32:59;;;;;;;17.75;3.50;;;;;;;10.16;100.00;100598.34;5031347;28;20549;-38
2022/11/07 02:35:39;;;;;;;24.50;5.13;;;;;;;10.17;100.00;100586.59;5030334;28;20561;-38
2022/11/07 02:38:11;;;;;;;23.35;3.88;;;;;;;10.20;100.00;100599.69;5032919;28;20391;-38
2022/11/07 02:40:37;;;;;;;16.00;3.35;;;;;;;10.20;100.00;100607.75;5030851;28;20479;-40
2022/11/07 02:43:03;;;;;;;20.88;3.47;;;;;;;10.20;100.00;100605.06;5030257;28;20116;-40
2022/11/07 02:45:32;;;;;;;21.42;3.45;;;;;;;10.15;100.00;100594.00;5030586;28;20037;-41
2022/11/07 02:47:57;;;;;;;18.70;3.67;;;;;;;10.13;100.00;100590.66;5030715;28;20085;-41
2022/11/07 02:50:23;;;;;;;11.00;2.90;;;;;;;10.11;100.00;100581.97;5030860;28;20093;-43
2022/11/07 02:52:48;;;;;;;29.90;5.68;;;;;;;10.06;100.00;100592.44;5031049;28;20021;-43
2022/11/07 02:55:14;;;;;;;19.15;3.78;;;;;;;10.02;100.00;100601.91;5031435;28;20030;-40
2022/11/07 02:57:40;;;;;;;26.00;5.47;;;;;;;10.00;100.00;100606.63;5030568;28;20542;-40
2022/11/07 03:00:07;;;;;;;24.25;4.43;;;;;;;9.98;100.00;100606.81;5013809;28;20116;-39
2022/11/07 03:02:32;;;;;;;22.00;3.80;;;;;;;9.95;100.00;100606.31;5030803;28;20443;-40
2022/11/07 03:04:57;;;;;;;21.10;4.63;;;;;;;9.95;100.00;100604.47;5031027;28;20032;-39
2022/11/07 03:07:23;;;;;;;20.92;3.97;;;;;;;9.95;100.00;100606.31;5030861;28;20519;-39
2022/11/07 03:09:48;;;;;;;19.25;3.60;;;;;;;9.94;100.00;100596.59;5031158;28;20042;-38
2022/11/07 03:12:15;;;;;;;22.02;3.85;;;;;;;9.95;100.00;100604.47;5031106;28;20383;-38
2022/11/07 03:14:40;;;;;;;29.65;4.97;;;;;;;9.95;100.00;100604.47;5031420;28;20041;-39
2022/11/07 03:17:06;;;;;;;21.08;3.40;;;;;;;9.95;100.00;100603.63;5031531;28;20487;-40
2022/11/07 03:19:31;;;;;;;21.70;3.47;;;;;;;9.97;100.00;100612.38;5031302;28;20037;-43
2022/11/07 03:21:56;;;;;;;22.40;3.63;;;;;;;10.01;100.00;100602.94;5030065;28;20041;-42
2022/11/07 03:24:22;;;;;;;29.15;3.20;;;;;;;10.02;100.00;100604.59;5029191;28;20029;-44
2022/11/07 03:26:47;;;;;;;21.85;3.63;;;;;;;10.03;100.00;100592.78;5029483;28;20435;-41
2022/11/07 03:29:13;;;;;;;22.10;3.35;;;;;;;9.99;100.00;100592.34;5030347;28;20426;-40
2022/11/07 03:31:38;;;;;;;17.23;2.70;;;;;;;9.97;100.00;100596.22;5030357;28;20100;-39
2022/11/07 03:34:03;;;;;;;24.65;3.88;;;;;;;9.95;100.00;100593.72;5031367;28;20053;-40
2022/11/07 03:36:29;;;;;;;18.67;2.90;;;;;;;9.94;100.00;100586.69;5028925;28;20033;-38
2022/11/07 03:38:54;;;;;;;17.00;3.45;;;;;;;9.98;100.00;100592.50;5030787;28;20077;-39
2022/11/07 03:41:20;;;;;;;21.38;4.47;;;;;;;10.00;100.00;100620.06;5031183;28;20448;-37
2022/11/07 03:43:45;;;;;;;24.85;3.97;;;;;;;10.01;100.00;100593.00;5009470;28;20379;-38
2022/11/07 03:46:11;;;;;;;17.17;2.47;;;;;;;9.99;100.00;100594.19;5010919;28;20029;-39
2022/11/07 03:48:37;;;;;;;17.98;3.75;;;;;;;10.01;100.00;100602.94;5012896;28;20038;-42
2022/11/07 03:51:04;;;;;;;22.83;3.83;;;;;;;10.01;100.00;100594.84;5028529;28;20112;-39
2022/11/07 03:53:29;;;;;;;36.45;4.35;;;;;;;10.01;100.00;100602.94;5030305;28;20195;-38
2022/11/07 03:55:54;;;;;;;28.92;4.18;;;;;;;10.01;100.00;100603.75;5030690;28;20033;-40
2022/11/07 03:58:20;;;;;;;29.58;4.65;;;;;;;10.01;100.00;100592.16;5030257;28;20491;-38
2022/11/07 04:00:45;;;;;;;18.20;3.35;;;;;;;10.02;100.00;100599.19;5030184;28;20033;-37
2022/11/07 04:03:10;;;;;;;26.92;3.63;;;;;;;10.04;100.00;100602.56;5030549;28;20025;-38
2022/11/07 04:05:36;;;;;;;20.20;3.35;;;;;;;10.06;100.00;100592.44;5030143;28;20395;-39
2022/11/07 04:08:03;;;;;;;33.30;4.03;;;;;;;10.06;100.00;100609.41;5029933;28;20163;-37
2022/11/07 04:10:28;;;;;;;23.30;3.63;;;;;;;10.10;100.00;100607.19;5030778;28;20041;-38
2022/11/07 04:18:23;;;;;;;26.90;4.13;;;;;;;10.16;100.00;100600.22;5029313;28;20517;-37
2022/11/07 04:20:49;;;;;;;20.27;3.10;;;;;;;10.17;100.00;100601.91;5029937;28;20057;-38
2022/11/07 04:23:14;;;;;;;20.17;3.58;;;;;;;10.17;100.00;100605.44;5033122;28;20034;-37
2022/11/07 04:28:23;;;;;;;32.25;4.05;;;;;;;10.15;100.00;100596.69;5031800;28;20047;-37
2022/11/07 04:30:49;;;;;;;30.45;3.72;;;;;;;10.15;100.00;100603.94;5030671;28;20232;-37
2022/11/07 04:33:14;;;;;;;23.20;3.60;;;;;;;10.16;100.00;100601.06;5032534;28;20037;-40
2022/11/07 04:35:39;;;;;;;34.20;4.07;;;;;;;10.20;100.00;100593.47;5034071;28;20032;-38
2022/11/07 04:38:05;;;;;;;19.20;3.40;;;;;;;10.21;100.00;100595.94;5033768;28;20083;-38
2022/11/07 04:40:30;;;;;;;23.02;3.75;;;;;;;10.20;100.00;100605.06;5032309;28;20025;-37
2022/11/07 04:42:56;;;;;;;25.63;3.35;;;;;;;10.23;100.00;100606.53;5032493;28;20041;-38
2022/11/07 04:45:21;;;;;;;24.55;3.25;;;;;;;10.24;100.00;100603.69;5034744;28;20029;-37
2022/11/07 04:47:47;;;;;;;27.25;4.00;;;;;;;10.25;100.00;100608.03;5034678;28;20041;-40
2022/11/07 04:50:14;;;;;;;25.75;3.15;;;;;;;10.25;100.00;100607.19;5034646;28;20109;-38
2022/11/07 04:52:39;;;;;;;30.07;3.37;;;;;;;10.25;100.00;100605.34;5038126;28;20600;-38
2022/11/07 04:55:06;;;;;;;24.17;2.95;;;;;;;10.23;100.00;100599.31;5030008;28;20376;-37
2022/11/07 04:57:31;;;;;;;24.63;3.30;;;;;;;10.25;100.00;100610.72;5015122;28;20030;-37
2022/11/07 04:59:57;;;;;;;25.67;3.63;;;;;;;10.27;100.00;100592.56;5030624;28;20030;-38
2022/11/07 05:02:23;;;;;;;31.08;3.90;;;;;;;10.27;100.00;100597.94;5034885;28;20037;-38
2022/11/07 05:04:50;;;;;;;32.40;4.15;;;;;;;10.26;100.00;100590.84;5031119;28;20372;-38
2022/11/07 05:07:15;;;;;;;25.10;3.13;;;;;;;10.27;100.00;100597.09;5031172;28;20021;-39
2022/11/07 05:09:40;;;;;;;27.10;3.08;;;;;;;10.28;100.00;100594.22;5033901;28;20458;-39
2022/11/07 05:12:06;;;;;;;33.35;3.80;;;;;;;10.27;100.00;100608.72;5032196;28;20018;-39
2022/11/07 05:14:31;;;;;;;27.40;4.82;;;;;;;10.31;100.00;100599.22;5032852;28;20026;-40
2022/11/07 05:16:56;;;;;;;35.88;4.45;;;;;;;10.33;100.00;100602.56;5033012;28;20140;-40
2022/11/07 05:19:22;;;;;;;31.60;3.92;;;;;;;10.35;100.00;100607.78;5031418;28;20061;-39
2022/11/07 05:23:10;;;;;;;25.77;4.10;;;;;;;10.37;100.00;100605.72;5032064;28;20034;-38
2022/11/07 05:24:33;;;;;;;34.08;4.35;;;;;;;10.37;100.00;100603.03;5029000;28;20372;-39
2022/11/07 05:26:58;;;;;;;33.80;4.70;;;;;;;10.40;100.00;100607.19;5031563;28;20029;-37
2022/11/07 05:29:24;;;;;;;25.90;4.15;;;;;;;10.38;100.00;100599.34;5034031;28;20049;-38
2022/11/07 05:31:49;;;;;;;28.50;3.90;;;;;;;10.39;100.00;100610.94;5033602;28;20112;-37
2022/11/07 05:34:14;;;;;;;30.75;3.78;;;;;;;10.41;100.00;100614.28;5033500;28;20482;-38
2022/11/07 05:36:40;;;;;;;26.15;3.95;;;;;;;10.41;100.00;100606.19;5033743;28;20407;-39
2022/11/07 05:39:05;;;;;;;38.33;3.85;;;;;;;10.39;100.00;100605.53;5034943;28;20502;-38
2022/11/07 05:41:30;;;;;;;30.73;3.75;;;;;;;10.39;100.00;100610.94;5033172;28;20340;-37
2022/11/07 05:43:56;;;;;;;27.13;3.65;;;;;;;10.39;100.00;100609.06;5033370;28;20021;-40
2022/11/07 05:46:21;;;;;;;24.67;3.95;;;;;;;10.38;100.00;100615.47;5032537;28;20041;-38
2022/11/07 05:48:46;;;;;;;29.52;4.25;;;;;;;10.39;100.00;100614.44;5027859;28;20503;-39
2022/11/07 05:51:12;;;;;;;32.60;4.10;;;;;;;10.39;100.00;100625.22;5028362;28;20041;-37
2022/11/07 05:53:37;;;;;;;28.90;3.88;;;;;;;10.38;100.00;100614.66;5030609;28;20541;-38
2022/11/07 05:56:03;;;;;;;27.02;4.75;;;;;;;10.37;100.00;100621.03;5030463;28;20133;-38
2022/11/07 05:58:28;;;;;;;36.22;4.70;;;;;;;10.35;100.00;100618.53;5030371;28;20104;-38
2022/11/07 06:00:53;;;;;;;28.30;4.55;;;;;;;10.34;100.00;100622.22;5030895;28;20022;-38
2022/11/07 06:03:19;;;;;;;36.85;6.15;;;;;;;10.33;100.00;100621.41;5031958;28;20044;-37
2022/11/07 06:05:45;;;;;;;33.00;5.45;;;;;;;10.35;100.00;100625.75;5029868;28;20033;-39
2022/11/07 06:08:12;;;;;;;32.50;4.70;;;;;;;10.33;100.00;100629.47;5031039;28;20041;-40
2022/11/07 06:10:38;;;;;;;23.85;4.80;;;;;;;10.35;100.00;100610.47;5029164;28;20363;-38
2022/11/07 06:13:06;;;;;;;33.80;5.63;;;;;;;10.39;100.00;100621.69;5030955;28;20041;-38
2022/11/07 06:15:33;;;;;;;29.85;5.28;;;;;;;10.48;100.00;100621.41;5029515;28;20042;-38
2022/11/07 06:18:02;;;;;;;32.47;5.70;;;;;;;10.48;100.00;100615.19;5027332;28;20241;-40
2022/11/07 06:20:29;;;;;;;27.02;5.40;;;;;;;10.55;100.00;100605.34;5032911;28;20040;-38
2022/11/07 06:23:01;;;;;;;35.78;5.38;;;;;;;10.55;100.00;100605.34;5033425;28;20030;-38
2022/11/07 06:25:27;;;;;;;28.63;4.78;;;;;;;10.55;100.00;100595.41;5032552;28;20047;-39
2022/11/07 06:27:58;;;;;;;20.92;4.43;;;;;;;10.54;100.00;100603.69;5032130;28;20048;-39
2022/11/07 06:30:23;;;;;;;27.67;4.68;;;;;;;10.52;100.00;100606.53;5031531;28;20490;-37
2022/11/07 06:32:49;;;;;;;30.92;4.00;;;;;;;10.50;100.00;100613.13;5034226;28;20034;-38
2022/11/07 06:35:14;;;;;;;21.48;3.75;;;;;;;10.48;100.00;100615.19;4999864;28;20022;-37
2022/11/07 06:37:39;;;;;;;22.95;5.05;;;;;;;10.46;100.00;100612.69;5026374;28;20112;-38
2022/11/07 06:40:05;;;;;;;31.67;3.92;;;;;;;10.46;100.00;100630.69;5032817;28;20032;-40
2022/11/07 06:42:31;;;;;;;21.85;3.17;;;;;;;10.45;100.00;100627.19;5033272;28;20120;-38
2022/11/07 06:44:56;;;;;;;26.77;4.32;;;;;;;10.45;100.00;100626.31;5030663;28;20322;-38
2022/11/07 06:47:21;;;;;;;26.55;3.72;;;;;;;10.46;100.00;100619.94;5032653;28;20478;-37
2022/11/07 06:49:47;;;;;;;25.67;3.60;;;;;;;10.46;100.00;100626.13;5031625;28;20037;-37
2022/11/07 06:52:12;;;;;;;27.10;3.75;;;;;;;10.46;100.00;100615.38;5032240;28;20040;-37
2022/11/07 06:54:38;;;;;;;23.02;3.22;;;;;;;10.46;100.00;100614.53;5031026;28;20037;-37
2022/11/07 06:57:03;;;;;;;20.50;3.28;;;;;;;10.44;100.00;100617.41;5030364;28;20463;-39
2022/11/07 06:59:28;;;;;;;31.67;3.35;;;;;;;10.42;100.00;100624.00;5033682;28;20029;-39
2022/11/07 07:01:54;;;;;;;33.63;3.50;;;;;;;10.46;100.00;100630.69;5028412;28;20060;-37
2022/11/07 07:04:19;;;;;;;29.02;3.38;;;;;;;10.44;100.00;100616.59;5031121;28;20021;-39
2022/11/07 07:06:44;;;;;;;27.98;3.88;;;;;;;10.46;100.00;100628.84;5031611;28;20033;-40
2022/11/07 07:09:10;;;;;;;26.33;3.53;;;;;;;10.49;100.00;100643.78;5031644;28;20060;-38
2022/11/07 07:11:36;;;;;;;24.42;3.10;;;;;;;10.52;100.00;100640.69;5030180;28;20033;-39
2022/11/07 07:14:02;;;;;;;26.15;3.33;;;;;;;10.55;100.00;100659.16;5027125;28;20499;-38
2022/11/07 07:16:27;;;;;;;23.13;3.22;;;;;;;10.58;100.00;100636.41;5028402;28;20118;-39
2022/11/07 07:18:52;;;;;;;19.83;2.85;;;;;;;10.57;100.00;100646.34;5028411;28;20424;-37
2022/11/07 07:21:18;;;;;;;25.23;3.40;;;;;;;10.57;100.00;100650.91;5029871;28;20052;-37
2022/11/07 07:23:43;;;;;;;20.15;2.83;;;;;;;10.58;100.00;100653.41;5033137;28;20146;-39
2022/11/07 07:26:12;;;;;;;24.02;3.33;;;;;;;10.60;100.00;100678.28;5033976;28;20045;-41
2022/11/07 07:28:37;;;;;;;19.08;3.30;;;;;;;10.67;100.00;100662.22;5031002;28;20025;-38
2022/11/07 07:31:28;;;;;;;26.98;3.30;;;;;;;10.68;100.00;100672.78;5011883;28;20080;-36
2022/11/07 07:33:53;;;;;;;26.98;4.18;;;;;;;10.71;100.00;100675.09;5003935;28;20026;-38
2022/11/07 07:36:20;;;;;;;24.27;3.08;;;;;;;10.74;100.00;100672.06;4998427;28;20090;-37
2022/11/07 07:38:45;;;;;;;30.40;3.35;;;;;;;10.75;100.00;100672.88;5020627;28;20021;-40
2022/11/07 07:41:10;;;;;;;23.25;3.65;;;;;;;10.77;100.00;100678.94;5022875;28;20037;-41
2022/11/07 07:43:36;;;;;;;23.27;3.47;;;;;;;10.79;100.00;100676.88;5022561;28;20022;-39
2022/11/07 07:46:03;;;;;;;24.40;3.55;;;;;;;10.80;100.00;100685.78;5023683;28;20145;-39
2022/11/07 07:48:29;;;;;;;30.33;3.25;;;;;;;10.85;100.00;100686.03;5025466;28;20116;-39
2022/11/07 07:50:55;;;;;;;28.67;3.78;;;;;;;10.87;100.00;100697.47;5026904;28;20529;-38
2022/11/07 07:53:20;;;;;;;24.83;3.20;;;;;;;10.91;100.00;100691.53;5024833;28;20030;-38
2022/11/07 07:55:46;;;;;;;24.55;3.13;;;;;;;10.95;100.00;100711.69;5026882;28;20502;-38
2022/11/07 07:58:12;;;;;;;24.60;3.45;;;;;;;10.98;100.00;100691.63;5025492;28;20097;-40
2022/11/07 08:00:37;;;;;;;31.98;3.80;;;;;;;11.03;100.00;100693.72;5027003;28;20018;-41
2022/11/07 08:03:10;;;;;;;25.60;3.85;;;;;;;11.06;100.00;100710.38;5040277;28;20057;-38
2022/11/07 08:05:36;;;;;;;23.40;3.25;;;;;;;11.12;100.00;100708.78;5026763;28;20108;-39
2022/11/07 08:08:02;;;;;;;29.08;3.35;;;;;;;11.13;100.00;100708.56;5024121;28;20079;-39
2022/11/07 08:10:28;;;;;;;33.65;3.67;;;;;;;11.15;100.00;100709.22;5023086;28;20383;-41
2022/11/07 08:12:54;;;;;;;25.25;3.88;;;;;;;11.21;100.00;100716.53;5027459;28;20038;-40
2022/11/07 08:15:20;;;;;;;29.33;3.97;;;;;;;11.20;100.00;100724.81;5025164;28;20084;-37
2022/11/07 08:17:45;;;;;;;22.38;3.65;;;;;;;11.23;100.00;100715.53;5041132;28;20476;-39
2022/11/07 08:20:13;;;;;;;28.77;3.50;;;;;;;11.26;100.00;100715.97;5023236;28;20470;-39
2022/11/07 08:22:39;;;;;;;17.77;3.50;;;;;;;11.32;100.00;100720.63;5023602;28;20034;-37
2022/11/07 08:25:06;;;;;;;23.92;3.35;;;;;;;11.42;100.00;100718.44;5024078;28;20032;-40
2022/11/07 08:27:32;;;;;;;24.10;3.72;;;;;;;11.46;100.00;100720.78;5022931;28;20032;-39
2022/11/07 08:29:58;;;;;;;20.42;3.55;;;;;;;11.47;100.00;100712.47;5019106;28;20022;-41
2022/11/07 08:32:25;;;;;;;26.33;3.75;;;;;;;11.47;100.00;100723.25;5023523;28;20028;-38
2022/11/07 08:34:51;;;;;;;17.02;3.10;;;;;;;11.47;100.00;100727.81;5020721;28;20037;-39
2022/11/07 08:37:16;;;;;;;20.63;3.30;;;;;;;11.49;100.00;100720.38;5023635;28;20036;-38
2022/11/07 08:39:41;;;;;;;28.98;3.67;;;;;;;11.53;100.00;100738.69;5026657;28;20037;-38
2022/11/07 08:42:07;;;;;;;18.88;3.38;;;;;;;11.51;100.00;100729.94;5025181;28;20029;-39
2022/11/07 08:44:35;;;;;;;24.40;2.78;;;;;;;11.50;100.00;100749.00;5026331;28;20086;-40
2022/11/07 08:47:00;;;;;;;22.05;3.63;;;;;;;11.47;100.00;100742.13;5026489;28;20028;-41
2022/11/07 08:49:27;;;;;;;24.60;3.50;;;;;;;11.48;100.00;100751.03;5026605;28;20029;-40
2022/11/07 08:51:52;;;;;;;18.02;4.43;;;;;;;11.52;100.00;100737.00;5024858;28;20017;-38
2022/11/07 08:54:18;;;;;;;23.13;3.22;;;;;;;11.56;100.00;100757.16;5025999;28;20136;-37
2022/11/07 08:56:43;;;;;;;19.80;2.85;;;;;;;11.59;100.00;100743.31;5023608;28;20040;-40
2022/11/07 08:59:09;;;;;;;22.02;3.55;;;;;;;11.67;100.00;100771.16;5023706;28;20037;-38
2022/11/07 09:01:35;;;;;;;22.25;3.92;;;;;;;11.62;100.00;100758.25;5023722;28;20025;-39
2022/11/07 09:04:00;;;;;;;25.42;3.75;;;;;;;11.61;100.00;100779.00;5023665;28;20033;-38
2022/11/07 09:06:26;;;;;;;18.60;3.30;;;;;;;11.61;100.00;100768.22;5024158;28;20040;-39
2022/11/07 09:08:51;;;;;;;28.80;3.63;;;;;;;11.57;100.00;100763.38;5020967;28;20064;-40
2022/11/07 09:11:17;;;;;;;20.63;3.70;;;;;;;11.56;100.00;100775.19;5023440;28;20118;-39
2022/11/07 09:13:47;;;;;;;27.95;3.67;;;;;;;11.57;100.00;100780.38;5022179;28;20037;-38
2022/11/07 09:16:16;;;;;;;26.50;3.67;;;;;;;11.52;100.00;100780.13;5016642;28;20049;-38
2022/11/07 09:18:42;;;;;;;18.92;3.72;;;;;;;11.46;100.00;100788.16;5024411;28;20494;-40
2022/11/07 09:21:07;;;;;;;29.40;5.03;;;;;;;11.43;100.00;100786.66;5027561;28;20025;-39
2022/11/07 09:23:32;;;;;;;26.42;4.07;;;;;;;11.40;100.00;100776.22;5028661;28;20113;-39
2022/11/07 09:25:59;;;;;;;22.83;3.78;;;;;;;11.46;100.00;100774.66;5028187;28;20040;-38
2022/11/07 09:28:25;;;;;;;25.92;4.05;;;;;;;11.49;100.00;100779.69;5029276;28;20053;-38
2022/11/07 09:30:54;;;;;;;17.15;3.60;;;;;;;11.51;100.00;100783.84;5027221;28;20198;-37
2022/11/07 09:33:20;;;;;;;19.67;3.47;;;;;;;11.56;100.00;100794.91;5025577;28;20119;-39
2022/11/07 09:35:46;;;;;;;22.50;3.78;;;;;;;11.59;100.00;100788.28;5026426;28;20439;-38
2022/11/07 09:38:13;;;;;;;28.38;3.67;;;;;;;11.63;100.00;100795.78;5026268;28;20047;-37
2022/11/07 09:41:10;;;;;;;22.08;3.72;;;;;;;11.62;100.00;100807.59;5027863;28;20037;-36
2022/11/07 09:44:00;;;;;;;21.17;3.17;;;;;;;11.65;100.00;100853.06;5025514;28;20036;-37
2022/11/07 09:46:56;;;;;;;24.42;3.97;;;;;;;11.63;100.00;100803.88;5027254;28;20079;-39
2022/11/07 09:49:39;;;;;;;29.45;3.90;;;;;;;11.63;100.00;100798.50;4994723;28;20057;-39
2022/11/07 09:52:16;;;;;;;19.95;3.60;;;;;;;11.64;100.00;100789.38;5024159;28;20550;-39
2022/11/07 09:54:50;;;;;;;20.63;3.78;;;;;;;11.69;100.00;100802.31;5026243;28;20334;-37
2022/11/07 09:57:17;;;;;;;24.30;3.30;;;;;;;11.69;100.00;100804.16;5025713;28;20029;-37
2022/11/07 09:59:49;;;;;;;19.70;3.73;;;;;;;11.80;100.00;100814.47;5022360;28;20503;-38
2022/11/07 10:02:16;;;;;;;18.13;3.95;;;;;;;11.84;100.00;100799.53;5020593;28;20056;-37
2022/11/07 10:04:43;;;;;;;28.80;3.95;;;;;;;11.93;100.00;100806.53;5025112;28;20712;-37
2022/11/07 10:07:24;;;;;;;27.15;3.65;;;;;;;12.07;100.00;100797.53;5025218;28;20033;-38
2022/11/07 10:10:29;;;;;;;27.00;3.42;;;;;;;12.18;100.00;100800.75;5026688;28;20032;-38
2022/11/07 10:13:31;;;;;;;22.27;3.50;;;;;;;12.35;100.00;100788.66;5016744;28;20396;-39
2022/11/07 10:16:09;;;;;;;35.92;3.80;;;;;;;12.42;100.00;100792.22;5017848;28;20061;-38
2022/11/07 10:19:01;;;;;;;20.42;3.00;;;;;;;12.41;100.00;100790.56;5025388;28;20036;-39
2022/11/07 10:21:43;;;;;;;19.60;3.15;;;;;;;12.40;100.00;100796.16;5025811;28;20075;-40
2022/11/07 10:24:18;;;;;;;20.30;3.10;;;;;;;12.46;100.00;100796.22;5022975;28;20080;-37
2022/11/07 10:26:44;;;;;;;18.88;3.58;;;;;;;12.42;100.00;100807.59;5029274;28;21277;-38
2022/11/07 10:29:14;;;;;;;30.17;4.57;;;;;;;12.39;100.00;100805.28;5025210;28;20036;-37
2022/11/07 10:31:43;;;;;;;18.70;3.20;;;;;;;12.38;100.00;100807.16;5027300;28;20122;-37
2022/11/07 10:34:19;;;;;;;21.42;3.65;;;;;;;12.37;100.00;100821.66;5026918;28;20029;-37
2022/11/07 10:36:45;;;;;;;23.17;3.72;;;;;;;12.35;100.00;100817.50;5025884;28;20352;-38
2022/11/07 10:39:16;;;;;;;24.98;3.65;;;;;;;12.33;100.00;100812.31;5024871;28;20033;-39
2022/11/07 10:41:45;;;;;;;26.15;3.63;;;;;;;12.30;100.00;100820.78;5026202;28;20658;-38
2022/11/07 10:44:14;;;;;;;27.13;3.97;;;;;;;12.32;100.00;100824.13;5024587;28;20041;-37
2022/11/07 10:46:44;;;;;;;23.17;4.25;;;;;;;12.36;100.00;100825.41;5024104;28;20630;-38
2022/11/07 10:49:22;;;;;;;22.92;3.15;;;;;;;12.36;100.00;100830.81;5023562;28;20125;-40
2022/11/07 10:51:47;;;;;;;26.42;4.03;;;;;;;12.35;100.00;100826.44;5022738;28;20189;-38
2022/11/07 10:54:20;;;;;;;23.40;3.70;;;;;;;12.25;100.00;100834.03;5015029;28;20541;-39
2022/11/07 10:56:55;;;;;;;20.65;4.03;;;;;;;12.14;100.00;100834.53;5031619;28;20057;-38
2022/11/07 10:59:26;;;;;;;31.33;3.75;;;;;;;12.05;100.00;100845.44;5013904;28;20066;-39
2022/11/07 11:01:53;;;;;;;20.25;3.50;;;;;;;12.00;100.00;100841.66;5030321;28;20036;-40
2022/11/07 11:04:29;;;;;;;26.02;4.25;;;;;;;11.97;100.00;100842.88;5027184;28;20040;-37
2022/11/07 11:06:59;;;;;;;19.67;3.65;;;;;;;11.98;100.00;100839.16;5032540;28;20161;-35
2022/11/07 11:09:54;;;;;;;24.30;3.70;;;;;;;12.04;100.00;100838.38;5027830;28;20022;-38
2022/11/07 11:12:26;;;;;;;32.55;4.43;;;;;;;12.10;100.00;100830.56;5026201;28;20210;-38
2022/11/07 11:15:08;;;;;;;25.20;3.85;;;;;;;12.12;100.00;100829.34;5031125;28;20128;-36
2022/11/07 11:17:33;;;;;;;16.65;3.70;;;;;;;12.16;100.00;100819.81;5013210;28;20341;-37
2022/11/07 11:19:59;;;;;;;24.98;3.95;;;;;;;12.18;100.00;100822.34;5030988;28;20032;-38
2022/11/07 11:22:24;;;;;;;22.27;3.83;;;;;;;12.27;100.00;100823.88;5031048;28;20056;-39